Time;durP1;ratioP1;P1;durP2;ratioP2;P2;SDS_P1;SDS_P2;PMS_P1;PMS_P2;Temp;Humidity;BMP_temperature;BMP_pressure;BME280_temperature;BME280_humidity;BME280_pressure;Samples;Min_cycle;Max_cycle;Signal;HPM_P1;HPM_P2
2022/09/02 00:01:14;;;;;;;0.20;0.20;;;;;;;;;;4461841;28;20854;-71
2022/09/02 00:03:25;;;;;;;0.30;0.30;;;;;;;;;;4488754;28;20582;-71
2022/09/02 00:05:36;;;;;;;0.30;0.30;;;;;;;;;;4487167;28;20042;-71
2022/09/02 00:07:46;;;;;;;0.40;0.25;;;;;;;;;;4485425;28;20038;-71
2022/09/02 00:09:58;;;;;;;0.40;0.30;;;;;;;;;;4486223;28;20042;-71
2022/09/02 00:12:09;;;;;;;0.50;0.40;;;;;;;;;;4486973;28;20627;-72
2022/09/02 00:14:25;;;;;;;0.30;0.30;;;;;;;;;;4486306;28;20035;-71
2022/09/02 00:16:36;;;;;;;0.40;0.30;;;;;;;;;;4486533;28;20102;-71
2022/09/02 00:18:47;;;;;;;1.27;0.40;;;;;;;;;;4488320;28;20133;-69
2022/09/02 00:20:58;;;;;;;0.25;0.25;;;;;;;;;;4486642;28;20034;-71
2022/09/02 00:23:09;;;;;;;0.57;0.40;;;;;;;;;;4473975;28;20595;-71
2022/09/02 00:25:20;;;;;;;0.55;0.40;;;;;;;;;;4486983;28;20022;-71
2022/09/02 00:27:30;;;;;;;0.43;0.35;;;;;;;;;;4484373;28;20780;-71
2022/09/02 00:29:41;;;;;;;0.50;0.30;;;;;;;;;;4485032;28;20041;-71
2022/09/02 00:31:51;;;;;;;0.40;0.40;;;;;;;;;;4487028;28;20030;-69
2022/09/02 00:34:03;;;;;;;0.30;0.30;;;;;;;;;;4487108;28;20049;-70
2022/09/02 00:36:14;;;;;;;0.68;0.20;;;;;;;;;;4469773;28;20029;-70
2022/09/02 00:38:25;;;;;;;0.30;0.30;;;;;;;;;;4485008;28;20039;-69
2022/09/02 00:40:36;;;;;;;0.35;0.30;;;;;;;;;;4487154;28;20113;-69
2022/09/02 00:42:46;;;;;;;0.47;0.45;;;;;;;;;;4486224;28;20133;-69
2022/09/02 00:44:57;;;;;;;0.40;0.30;;;;;;;;;;4485722;28;20081;-70
2022/09/02 00:47:07;;;;;;;0.77;0.40;;;;;;;;;;4486373;28;20066;-66
2022/09/02 00:49:27;;;;;;;0.85;0.30;;;;;;;;;;4474028;28;20200;-70
2022/09/02 00:51:45;;;;;;;0.20;0.20;;;;;;;;;;4487445;28;20116;-70
2022/09/02 00:53:55;;;;;;;1.55;0.40;;;;;;;;;;4485303;28;21058;-70
2022/09/02 00:56:11;;;;;;;0.60;0.32;;;;;;;;;;4485861;28;20042;-70
2022/09/02 00:58:27;;;;;;;0.95;0.38;;;;;;;;;;4486616;28;20034;-69
2022/09/02 01:00:41;;;;;;;0.47;0.30;;;;;;;;;;4485848;28;20085;-70
2022/09/02 01:03:04;;;;;;;0.40;0.30;;;;;;;;;;4483880;28;21110;-70
2022/09/02 01:05:17;;;;;;;0.38;0.30;;;;;;;;;;4491394;28;20038;-67
2022/09/02 01:07:32;;;;;;;0.25;0.25;;;;;;;;;;4501278;28;20034;-70
2022/09/02 01:09:43;;;;;;;1.08;0.35;;;;;;;;;;4484202;28;20550;-70
2022/09/02 01:11:54;;;;;;;0.30;0.30;;;;;;;;;;4489054;28;20072;-69
2022/09/02 01:14:06;;;;;;;0.35;0.30;;;;;;;;;;4484695;28;20847;-70
2022/09/02 01:16:26;;;;;;;0.70;0.30;;;;;;;;;;4487699;28;20030;-70
2022/09/02 01:18:37;;;;;;;0.35;0.35;;;;;;;;;;4486926;28;20038;-70
2022/09/02 01:20:48;;;;;;;0.40;0.40;;;;;;;;;;4484431;28;20038;-70
2022/09/02 01:22:59;;;;;;;0.30;0.30;;;;;;;;;;4487326;28;20539;-71
2022/09/02 01:25:16;;;;;;;0.30;0.30;;;;;;;;;;4484004;28;20105;-70
2022/09/02 01:27:27;;;;;;;0.52;0.52;;;;;;;;;;4484360;28;20030;-70
2022/09/02 01:29:37;;;;;;;0.30;0.30;;;;;;;;;;4486488;28;20038;-70
2022/09/02 01:31:48;;;;;;;0.55;0.35;;;;;;;;;;4486565;28;20551;-71
2022/09/02 01:33:59;;;;;;;0.43;0.30;;;;;;;;;;4487832;28;20116;-70
2022/09/02 01:36:09;;;;;;;1.20;0.30;;;;;;;;;;4482924;28;20528;-68
2022/09/02 01:38:21;;;;;;;0.52;0.38;;;;;;;;;;4484913;28;20100;-71
2022/09/02 01:40:31;;;;;;;0.52;0.40;;;;;;;;;;4485796;28;20771;-71
2022/09/02 01:42:43;;;;;;;0.60;0.32;;;;;;;;;;4484985;28;20045;-70
2022/09/02 01:44:53;;;;;;;1.00;0.40;;;;;;;;;;4473155;28;20047;-70
2022/09/02 01:47:04;;;;;;;0.47;0.30;;;;;;;;;;4473163;28;20034;-70
2022/09/02 01:49:15;;;;;;;0.52;0.40;;;;;;;;;;4485996;28;20508;-70
2022/09/02 01:51:25;;;;;;;1.55;0.40;;;;;;;;;;4485092;28;20495;-71
2022/09/02 01:53:36;;;;;;;0.47;0.38;;;;;;;;;;4472491;28;20102;-71
2022/09/02 01:55:49;;;;;;;0.30;0.30;;;;;;;;;;4498329;28;20609;-70
2022/09/02 01:58:00;;;;;;;0.60;0.40;;;;;;;;;;4485035;28;20495;-70
2022/09/02 02:00:12;;;;;;;0.52;0.40;;;;;;;;;;4488507;28;20554;-70
2022/09/02 02:02:25;;;;;;;0.63;0.40;;;;;;;;;;4486112;28;20731;-70
2022/09/02 02:04:36;;;;;;;0.32;0.32;;;;;;;;;;4483048;28;20040;-70
2022/09/02 02:06:49;;;;;;;0.68;0.40;;;;;;;;;;4499850;28;20136;-71
2022/09/02 02:09:00;;;;;;;0.38;0.30;;;;;;;;;;4472533;28;20050;-70
2022/09/02 02:11:18;;;;;;;0.77;0.40;;;;;;;;;;4486469;28;20133;-70
2022/09/02 02:13:33;;;;;;;0.85;0.38;;;;;;;;;;4485030;28;20820;-68
2022/09/02 02:15:43;;;;;;;0.40;0.40;;;;;;;;;;4498202;28;20029;-70
2022/09/02 02:17:54;;;;;;;0.40;0.40;;;;;;;;;;4485204;28;20030;-70
2022/09/02 02:20:06;;;;;;;0.30;0.30;;;;;;;;;;4486761;28;20061;-70
2022/09/02 02:22:17;;;;;;;0.93;0.20;;;;;;;;;;4470785;28;21313;-71
2022/09/02 02:24:27;;;;;;;1.02;0.32;;;;;;;;;;4484063;28;20038;-71
2022/09/02 02:26:38;;;;;;;0.45;0.40;;;;;;;;;;4483374;28;20026;-71
2022/09/02 02:28:50;;;;;;;0.40;0.40;;;;;;;;;;4480121;28;20853;-72
2022/09/02 02:31:01;;;;;;;0.25;0.20;;;;;;;;;;4486353;28;20845;-71
2022/09/02 02:33:12;;;;;;;0.77;0.40;;;;;;;;;;4490920;28;20038;-71
2022/09/02 02:35:23;;;;;;;1.13;0.45;;;;;;;;;;4488204;28;20031;-71
2022/09/02 02:37:34;;;;;;;0.32;0.32;;;;;;;;;;4488093;28;20058;-71
2022/09/02 02:39:44;;;;;;;0.70;0.40;;;;;;;;;;4490703;28;20109;-71
2022/09/02 02:41:55;;;;;;;0.40;0.40;;;;;;;;;;4474939;28;20026;-68
2022/09/02 02:44:05;;;;;;;0.40;0.38;;;;;;;;;;4471747;28;20041;-71
2022/09/02 02:46:19;;;;;;;0.40;0.32;;;;;;;;;;4490914;28;20325;-72
2022/09/02 02:48:29;;;;;;;1.30;0.50;;;;;;;;;;4486659;28;20041;-71
2022/09/02 02:50:41;;;;;;;0.40;0.40;;;;;;;;;;4487347;28;20393;-72
2022/09/02 02:52:53;;;;;;;0.55;0.40;;;;;;;;;;4487067;28;20254;-71
2022/09/02 02:55:05;;;;;;;0.30;0.30;;;;;;;;;;4488987;28;20082;-70
2022/09/02 02:57:16;;;;;;;0.52;0.40;;;;;;;;;;4488830;28;20074;-71
2022/09/02 02:59:28;;;;;;;0.65;0.38;;;;;;;;;;4490130;28;20034;-71
2022/09/02 03:01:38;;;;;;;0.40;0.30;;;;;;;;;;4487586;28;20019;-71
2022/09/02 03:03:50;;;;;;;0.40;0.40;;;;;;;;;;4503085;28;20503;-68
2022/09/02 03:06:02;;;;;;;0.77;0.40;;;;;;;;;;4486588;28;20058;-72
2022/09/02 03:08:14;;;;;;;0.40;0.40;;;;;;;;;;4483814;28;20574;-72
2022/09/02 03:10:26;;;;;;;0.45;0.43;;;;;;;;;;4474715;28;20105;-71
2022/09/02 03:12:38;;;;;;;0.40;0.30;;;;;;;;;;4489851;28;20059;-72
2022/09/02 03:14:50;;;;;;;0.38;0.38;;;;;;;;;;4500755;28;20045;-71
2022/09/02 03:17:03;;;;;;;0.60;0.50;;;;;;;;;;4475100;28;20031;-71
2022/09/02 03:19:14;;;;;;;0.35;0.35;;;;;;;;;;4486832;28;20037;-71
2022/09/02 03:21:25;;;;;;;0.60;0.40;;;;;;;;;;4503131;28;20038;-71
2022/09/02 03:23:35;;;;;;;0.60;0.40;;;;;;;;;;4489207;28;20029;-71
2022/09/02 03:25:46;;;;;;;0.47;0.40;;;;;;;;;;4488964;28;20034;-69
2022/09/02 03:28:08;;;;;;;0.45;0.40;;;;;;;;;;4488900;28;20041;-71
2022/09/02 03:30:23;;;;;;;0.80;0.47;;;;;;;;;;4484967;28;20674;-72
2022/09/02 03:32:34;;;;;;;1.65;0.57;;;;;;;;;;4485490;28;20571;-72
2022/09/02 03:34:45;;;;;;;0.38;0.38;;;;;;;;;;4485522;28;20035;-70
2022/09/02 03:36:56;;;;;;;0.57;0.30;;;;;;;;;;4474803;28;20045;-72
2022/09/02 03:39:09;;;;;;;0.88;0.50;;;;;;;;;;4486245;28;20136;-72
2022/09/02 03:41:20;;;;;;;0.50;0.50;;;;;;;;;;4486635;28;20109;-71
2022/09/02 03:43:31;;;;;;;0.60;0.50;;;;;;;;;;4488254;28;20571;-71
2022/09/02 03:45:42;;;;;;;1.20;0.70;;;;;;;;;;4492287;28;20030;-71
2022/09/02 03:47:55;;;;;;;0.68;0.50;;;;;;;;;;4491584;28;20128;-71
2022/09/02 03:50:09;;;;;;;0.55;0.40;;;;;;;;;;4487030;28;20039;-72
2022/09/02 03:52:20;;;;;;;0.40;0.40;;;;;;;;;;4486282;28;20792;-72
2022/09/02 03:54:31;;;;;;;1.17;0.40;;;;;;;;;;4473858;28;20770;-72
2022/09/02 03:56:41;;;;;;;0.30;0.30;;;;;;;;;;4475617;28;20042;-68
2022/09/02 03:58:52;;;;;;;0.80;0.50;;;;;;;;;;4476344;28;21008;-71
2022/09/02 04:01:15;;;;;;;0.77;0.50;;;;;;;;;;4471904;28;20031;-72
2022/09/02 04:03:26;;;;;;;0.52;0.52;;;;;;;;;;4488623;28;20037;-72
2022/09/02 04:05:38;;;;;;;0.38;0.38;;;;;;;;;;4469543;28;20034;-72
2022/09/02 04:07:51;;;;;;;0.75;0.45;;;;;;;;;;4487584;28;20047;-73
2022/09/02 04:10:03;;;;;;;0.73;0.43;;;;;;;;;;4488635;28;20761;-72
2022/09/02 04:12:14;;;;;;;0.47;0.40;;;;;;;;;;4462886;28;20045;-71
2022/09/02 04:14:26;;;;;;;0.50;0.50;;;;;;;;;;4488472;28;20044;-72
2022/09/02 04:20:46;;;;;;;0.40;0.40;;;;;;;;;;4485045;28;20043;-72
2022/09/02 04:23:15;;;;;;;0.40;0.40;;;;;;;;;;4489069;28;20046;-72
2022/09/02 04:25:28;;;;;;;0.80;0.50;;;;;;;;;;4487801;28;20085;-72
2022/09/02 04:27:40;;;;;;;0.50;0.50;;;;;;;;;;4474482;28;20070;-69
2022/09/02 04:29:51;;;;;;;0.65;0.50;;;;;;;;;;4485935;28;20106;-72
2022/09/02 04:32:02;;;;;;;0.57;0.50;;;;;;;;;;4487257;28;20054;-72
2022/09/02 04:34:13;;;;;;;0.40;0.40;;;;;;;;;;4487475;28;20045;-72
2022/09/02 04:36:26;;;;;;;0.85;0.50;;;;;;;;;;4499706;28;20029;-72
2022/09/02 04:38:39;;;;;;;0.60;0.60;;;;;;;;;;4475725;28;20070;-72
2022/09/02 04:40:51;;;;;;;1.42;0.50;;;;;;;;;;4487455;28;20694;-72
2022/09/02 04:43:03;;;;;;;0.60;0.60;;;;;;;;;;4485383;28;20120;-71
2022/09/02 04:45:16;;;;;;;0.43;0.43;;;;;;;;;;4471549;28;20027;-72
2022/09/02 04:47:27;;;;;;;0.75;0.60;;;;;;;;;;4500056;28;20068;-72
2022/09/02 04:49:40;;;;;;;0.57;0.50;;;;;;;;;;4489592;28;20038;-71
2022/09/02 04:51:53;;;;;;;0.40;0.40;;;;;;;;;;4469899;28;20030;-72
2022/09/02 04:54:06;;;;;;;0.93;0.73;;;;;;;;;;4499032;28;20049;-72
2022/09/02 04:56:26;;;;;;;0.60;0.50;;;;;;;;;;4484153;28;20961;-72
2022/09/02 04:58:37;;;;;;;0.45;0.45;;;;;;;;;;4478537;28;20039;-70
2022/09/02 05:00:48;;;;;;;0.60;0.50;;;;;;;;;;4484418;28;20031;-72
2022/09/02 05:03:00;;;;;;;0.50;0.50;;;;;;;;;;4485449;28;20038;-72
2022/09/02 05:05:13;;;;;;;0.70;0.50;;;;;;;;;;4490593;28;20141;-71
2022/09/02 05:07:25;;;;;;;0.60;0.50;;;;;;;;;;4484096;28;20038;-72
2022/09/02 05:09:36;;;;;;;0.47;0.40;;;;;;;;;;4499870;28;20040;-72
2022/09/02 05:11:50;;;;;;;0.55;0.50;;;;;;;;;;4483303;28;20229;-71
2022/09/02 05:14:05;;;;;;;0.93;0.60;;;;;;;;;;4487192;28;20618;-67
2022/09/02 05:16:29;;;;;;;1.00;0.52;;;;;;;;;;4490176;28;20036;-72
2022/09/02 05:18:40;;;;;;;1.23;0.50;;;;;;;;;;4500041;28;20030;-72
2022/09/02 05:20:51;;;;;;;0.70;0.70;;;;;;;;;;4487353;28;20539;-72
2022/09/02 05:23:02;;;;;;;0.40;0.40;;;;;;;;;;4487660;28;20045;-69
2022/09/02 05:25:12;;;;;;;0.63;0.40;;;;;;;;;;4486673;28;20404;-72
2022/09/02 05:27:24;;;;;;;1.73;0.60;;;;;;;;;;4488303;28;20133;-72
2022/09/02 05:29:34;;;;;;;0.40;0.40;;;;;;;;;;4499735;28;20586;-71
2022/09/02 05:31:46;;;;;;;1.00;0.55;;;;;;;;;;4486463;28;20022;-71
2022/09/02 05:33:57;;;;;;;1.05;0.52;;;;;;;;;;4487163;28;20124;-72
2022/09/02 05:36:11;;;;;;;1.02;0.60;;;;;;;;;;4487686;28;20497;-72
2022/09/02 05:38:23;;;;;;;0.50;0.50;;;;;;;;;;4482198;28;20145;-72
2022/09/02 05:40:37;;;;;;;0.80;0.50;;;;;;;;;;4502352;28;20681;-72
2022/09/02 05:42:49;;;;;;;1.15;0.60;;;;;;;;;;4486465;28;20477;-71
2022/09/02 05:45:00;;;;;;;0.88;0.50;;;;;;;;;;4483774;28;20782;-68
2022/09/02 05:47:11;;;;;;;0.70;0.50;;;;;;;;;;4474067;28;20138;-71
2022/09/02 05:49:22;;;;;;;0.57;0.50;;;;;;;;;;4482151;28;20626;-71
2022/09/02 05:51:45;;;;;;;0.85;0.50;;;;;;;;;;4484911;28;20826;-71
2022/09/02 05:53:58;;;;;;;;;;;;;;;;;;4486223;28;20030;-71
2022/09/02 05:56:09;;;;;;;0.65;0.60;;;;;;;;;;4458201;28;19918;-71
2022/09/02 05:58:20;;;;;;;0.80;0.50;;;;;;;;;;4485885;28;20039;-72
2022/09/02 06:00:30;;;;;;;0.80;0.45;;;;;;;;;;4484747;28;20667;-69
2022/09/02 06:03:01;;;;;;;0.60;0.50;;;;;;;;;;4483788;28;20184;-67
2022/09/02 06:05:17;;;;;;;0.70;0.50;;;;;;;;;;4498698;28;20043;-72
2022/09/02 06:07:35;;;;;;;0.50;0.50;;;;;;;;;;4485607;28;20510;-72
2022/09/02 06:09:46;;;;;;;0.50;0.50;;;;;;;;;;4483156;28;20054;-72
2022/09/02 06:11:57;;;;;;;0.70;0.60;;;;;;;;;;4469944;28;20039;-73
2022/09/02 06:14:13;;;;;;;1.17;0.50;;;;;;;;;;4483057;28;20140;-72
2022/09/02 06:16:25;;;;;;;0.50;0.50;;;;;;;;;;4485181;28;20690;-71
2022/09/02 06:18:35;;;;;;;0.60;0.43;;;;;;;;;;4490101;28;20700;-70
2022/09/02 06:20:46;;;;;;;0.93;0.55;;;;;;;;;;4485714;28;20026;-71
2022/09/02 06:22:58;;;;;;;0.40;0.40;;;;;;;;;;4472496;28;20330;-71
2022/09/02 06:25:09;;;;;;;0.52;0.52;;;;;;;;;;4469545;28;20042;-70
2022/09/02 06:27:19;;;;;;;0.57;0.50;;;;;;;;;;4486998;28;20034;-70
2022/09/02 06:29:33;;;;;;;0.50;0.50;;;;;;;;;;4472582;28;20593;-71
2022/09/02 06:31:45;;;;;;;0.50;0.50;;;;;;;;;;4487645;28;20643;-71
2022/09/02 06:33:58;;;;;;;0.50;0.47;;;;;;;;;;4485895;28;20132;-70
2022/09/02 06:36:13;;;;;;;0.40;0.40;;;;;;;;;;4487524;28;20218;-72
2022/09/02 06:38:24;;;;;;;0.50;0.50;;;;;;;;;;4483949;28;20030;-71
2022/09/02 06:40:36;;;;;;;0.65;0.55;;;;;;;;;;4485570;28;20113;-71
2022/09/02 06:42:48;;;;;;;0.43;0.40;;;;;;;;;;4475484;28;20070;-71
2022/09/02 06:45:19;;;;;;;1.25;0.60;;;;;;;;;;4484624;28;20034;-71
2022/09/02 06:47:30;;;;;;;0.63;0.43;;;;;;;;;;4473958;28;20110;-71
2022/09/02 06:49:41;;;;;;;0.40;0.40;;;;;;;;;;4483960;28;20579;-70
2022/09/02 06:51:54;;;;;;;0.38;0.38;;;;;;;;;;4485280;28;20041;-71
2022/09/02 06:54:08;;;;;;;0.55;0.47;;;;;;;;;;4474200;28;20058;-71
2022/09/02 06:56:21;;;;;;;0.40;0.40;;;;;;;;;;4468485;28;20148;-70
2022/09/02 06:58:31;;;;;;;1.27;0.50;;;;;;;;;;4471959;28;20117;-67
2022/09/02 07:00:42;;;;;;;0.73;0.50;;;;;;;;;;4496846;28;20061;-71
2022/09/02 07:05:25;;;;;;;0.68;0.50;;;;;;;;;;4470249;28;20038;-69
2022/09/02 07:07:38;;;;;;;0.40;0.40;;;;;;;;;;4487172;28;20888;-69
2022/09/02 07:09:54;;;;;;;1.08;0.50;;;;;;;;;;4501242;28;20073;-69
2022/09/02 07:12:05;;;;;;;0.52;0.40;;;;;;;;;;4484087;28;20050;-69
2022/09/02 07:14:19;;;;;;;0.50;0.50;;;;;;;;;;4484656;28;20034;-70
2022/09/02 07:16:42;;;;;;;0.90;0.50;;;;;;;;;;4487432;28;20766;-69
2022/09/02 07:18:53;;;;;;;0.80;0.60;;;;;;;;;;4465033;28;20133;-70
2022/09/02 07:21:08;;;;;;;0.70;0.60;;;;;;;;;;4486833;28;20791;-69
2022/09/02 07:23:19;;;;;;;0.50;0.50;;;;;;;;;;4487048;28;20042;-70
2022/09/02 07:25:29;;;;;;;0.60;0.50;;;;;;;;;;4473925;28;20033;-70
2022/09/02 07:27:40;;;;;;;0.80;0.50;;;;;;;;;;4486190;28;20047;-69
2022/09/02 07:29:50;;;;;;;0.60;0.40;;;;;;;;;;4483809;28;20093;-70
2022/09/02 07:32:03;;;;;;;0.68;0.50;;;;;;;;;;4501112;28;20034;-69
2022/09/02 07:34:14;;;;;;;1.25;0.70;;;;;;;;;;4484254;28;20117;-70
2022/09/02 07:36:26;;;;;;;0.85;0.60;;;;;;;;;;4471389;28;20551;-70
2022/09/02 07:38:37;;;;;;;0.57;0.50;;;;;;;;;;4487103;28;20153;-69
2022/09/02 07:40:49;;;;;;;1.00;0.60;;;;;;;;;;4485875;28;20034;-70
2022/09/02 07:43:01;;;;;;;1.08;0.50;;;;;;;;;;4488223;28;20073;-70
2022/09/02 07:45:12;;;;;;;0.70;0.60;;;;;;;;;;4486590;28;20906;-70
2022/09/02 07:47:24;;;;;;;0.57;0.50;;;;;;;;;;4486381;28;20037;-70
2022/09/02 07:49:35;;;;;;;0.55;0.47;;;;;;;;;;4475681;28;20039;-69
2022/09/02 07:51:48;;;;;;;0.95;0.73;;;;;;;;;;4485810;28;20508;-69
2022/09/02 07:54:01;;;;;;;0.77;0.77;;;;;;;;;;4474530;28;20042;-67
2022/09/02 07:56:12;;;;;;;0.80;0.60;;;;;;;;;;4474285;28;20042;-70
2022/09/02 07:58:23;;;;;;;0.47;0.47;;;;;;;;;;4487170;28;20815;-69
2022/09/02 08:00:34;;;;;;;1.17;0.70;;;;;;;;;;4487777;28;20038;-69
2022/09/02 08:02:50;;;;;;;0.70;0.68;;;;;;;;;;4469228;28;20539;-71
2022/09/02 08:05:06;;;;;;;1.00;0.60;;;;;;;;;;4488922;28;20041;-69
2022/09/02 08:07:22;;;;;;;0.68;0.68;;;;;;;;;;4487656;28;20396;-69
2022/09/02 08:09:33;;;;;;;0.80;0.70;;;;;;;;;;4487923;28;20049;-69
2022/09/02 08:11:46;;;;;;;0.50;0.50;;;;;;;;;;4488631;28;20595;-69
2022/09/02 08:13:58;;;;;;;0.63;0.60;;;;;;;;;;4487165;28;20835;-69
2022/09/02 08:16:08;;;;;;;0.73;0.70;;;;;;;;;;4486916;28;20037;-69
2022/09/02 08:18:20;;;;;;;2.47;0.70;;;;;;;;;;4487867;28;20088;-69
2022/09/02 08:20:30;;;;;;;0.63;0.57;;;;;;;;;;4485270;28;20626;-69
2022/09/02 08:22:40;;;;;;;1.13;0.77;;;;;;;;;;4486334;28;20023;-69
2022/09/02 08:24:51;;;;;;;0.60;0.60;;;;;;;;;;4486710;28;20293;-67
2022/09/02 08:27:01;;;;;;;0.70;0.60;;;;;;;;;;4486948;28;20031;-69
2022/09/02 08:29:12;;;;;;;1.25;0.75;;;;;;;;;;4486546;28;20050;-70
2022/09/02 08:31:23;;;;;;;0.82;0.60;;;;;;;;;;4484838;28;20126;-68
2022/09/02 08:33:33;;;;;;;0.60;0.60;;;;;;;;;;4486696;28;20094;-70
2022/09/02 08:35:44;;;;;;;1.13;0.60;;;;;;;;;;4486036;28;20115;-70
2022/09/02 08:37:57;;;;;;;1.20;0.70;;;;;;;;;;4484416;28;20469;-71
2022/09/02 08:40:15;;;;;;;0.90;0.70;;;;;;;;;;4484887;28;20034;-70
2022/09/02 08:42:30;;;;;;;0.68;0.50;;;;;;;;;;4484071;28;20637;-69
2022/09/02 08:44:41;;;;;;;0.68;0.60;;;;;;;;;;4470149;28;20030;-70
2022/09/02 08:46:54;;;;;;;0.70;0.70;;;;;;;;;;4470090;28;20033;-70
2022/09/02 08:49:21;;;;;;;0.60;0.60;;;;;;;;;;4485705;28;20050;-69
2022/09/02 08:51:48;;;;;;;0.70;0.70;;;;;;;;;;4488250;28;20094;-70
2022/09/02 08:54:25;;;;;;;;;;;;;;;;;;4487479;28;20045;-69
2022/09/02 08:56:36;;;;;;;0.85;0.70;;;;;;;;;;4458562;28;20202;-69
2022/09/02 08:58:51;;;;;;;0.60;0.60;;;;;;;;;;4468755;28;20039;-70
2022/09/02 09:01:08;;;;;;;0.90;0.68;;;;;;;;;;4485571;28;20042;-70
2022/09/02 09:03:26;;;;;;;0.90;0.70;;;;;;;;;;4497510;28;20492;-70
2022/09/02 09:05:51;;;;;;;0.73;0.70;;;;;;;;;;4484058;28;20035;-70
2022/09/02 09:08:09;;;;;;;0.63;0.55;;;;;;;;;;4486977;28;20039;-69
2022/09/02 09:10:38;;;;;;;0.60;0.60;;;;;;;;;;4485871;28;20143;-70
2022/09/02 09:13:01;;;;;;;1.15;0.70;;;;;;;;;;4486331;28;20031;-69
2022/09/02 09:15:11;;;;;;;0.98;0.80;;;;;;;;;;4485798;28;20050;-70
2022/09/02 09:17:26;;;;;;;0.88;0.77;;;;;;;;;;4486034;28;20065;-70
2022/09/02 09:19:53;;;;;;;1.13;0.93;;;;;;;;;;4485273;28;20125;-70
2022/09/02 09:22:04;;;;;;;1.10;0.60;;;;;;;;;;4485716;28;20145;-69
2022/09/02 09:24:36;;;;;;;0.52;0.52;;;;;;;;;;4485250;28;20030;-69
2022/09/02 09:26:46;;;;;;;1.00;0.80;;;;;;;;;;4486121;28;20568;-70
2022/09/02 09:28:58;;;;;;;1.05;0.65;;;;;;;;;;4490094;28;20224;-69
2022/09/02 09:31:14;;;;;;;1.15;0.70;;;;;;;;;;4485825;28;20829;-70
2022/09/02 09:33:25;;;;;;;1.00;0.70;;;;;;;;;;4487368;28;20819;-69
2022/09/02 09:35:50;;;;;;;1.02;0.70;;;;;;;;;;4484461;28;20423;-69
2022/09/02 09:38:11;;;;;;;0.98;0.77;;;;;;;;;;4486525;28;20034;-69
2022/09/02 09:40:31;;;;;;;0.90;0.60;;;;;;;;;;4486758;28;20034;-69
2022/09/02 09:42:42;;;;;;;0.60;0.60;;;;;;;;;;4488180;28;21390;-69
2022/09/02 09:44:52;;;;;;;1.52;0.80;;;;;;;;;;4485707;28;20054;-69
2022/09/02 09:47:07;;;;;;;0.80;0.70;;;;;;;;;;4485046;28;20027;-70
2022/09/02 09:49:25;;;;;;;0.80;0.68;;;;;;;;;;4485316;28;20922;-69
2022/09/02 09:51:35;;;;;;;1.17;0.70;;;;;;;;;;4485752;28;20093;-69
2022/09/02 09:53:46;;;;;;;1.13;0.60;;;;;;;;;;4482792;28;20045;-69
2022/09/02 09:56:22;;;;;;;0.60;0.60;;;;;;;;;;4484232;28;20031;-69
2022/09/02 09:58:38;;;;;;;1.67;0.75;;;;;;;;;;4487162;28;20053;-69
2022/09/02 10:00:55;;;;;;;0.63;0.50;;;;;;;;;;4484146;28;20645;-69
2022/09/02 10:03:07;;;;;;;0.90;0.80;;;;;;;;;;4490953;28;20037;-69
2022/09/02 10:05:26;;;;;;;0.60;0.60;;;;;;;;;;4482434;28;20113;-69
2022/09/02 10:07:41;;;;;;;1.20;0.65;;;;;;;;;;4486849;28;20045;-69
2022/09/02 10:10:08;;;;;;;1.00;0.88;;;;;;;;;;4464074;28;20051;-68
2022/09/02 10:12:32;;;;;;;0.98;0.80;;;;;;;;;;4484659;28;20038;-69
2022/09/02 10:14:46;;;;;;;0.80;0.70;;;;;;;;;;4483648;28;20555;-69
2022/09/02 10:17:30;;;;;;;1.27;0.70;;;;;;;;;;4483589;28;20144;-67
2022/09/02 10:20:02;;;;;;;0.98;0.70;;;;;;;;;;4484824;28;20822;-66
2022/09/02 10:22:21;;;;;;;1.52;0.70;;;;;;;;;;4481581;28;20149;-68
2022/09/02 10:24:31;;;;;;;1.10;0.90;;;;;;;;;;4485503;28;20042;-67
2022/09/02 10:26:49;;;;;;;0.90;0.60;;;;;;;;;;4487092;28;20035;-64
2022/09/02 10:29:07;;;;;;;1.15;0.80;;;;;;;;;;4486520;28;20133;-68
2022/09/02 10:31:37;;;;;;;0.73;0.73;;;;;;;;;;4485340;28;20575;-68
2022/09/02 10:34:04;;;;;;;0.90;0.75;;;;;;;;;;4486092;28;20117;-68
2022/09/02 10:36:27;;;;;;;0.70;0.70;;;;;;;;;;4484101;28;20034;-68
2022/09/02 10:38:47;;;;;;;0.70;0.70;;;;;;;;;;4484727;28;20125;-65
2022/09/02 10:41:17;;;;;;;0.90;0.80;;;;;;;;;;4486837;28;20041;-65
2022/09/02 10:43:44;;;;;;;0.70;0.70;;;;;;;;;;4482497;28;20043;-65
2022/09/02 10:45:58;;;;;;;1.05;0.90;;;;;;;;;;4469975;28;20038;-66
2022/09/02 10:48:34;;;;;;;0.60;0.60;;;;;;;;;;4482908;28;20792;-65
2022/09/02 10:50:54;;;;;;;1.00;0.90;;;;;;;;;;4485424;28;20078;-66
2022/09/02 10:53:23;;;;;;;0.95;0.88;;;;;;;;;;4488866;28;20683;-66
2022/09/02 10:55:57;;;;;;;2.50;1.30;;;;;;;;;;4486279;28;21266;-66
2022/09/02 10:58:13;;;;;;;0.98;0.90;;;;;;;;;;4489608;28;20026;-66
2022/09/02 11:00:25;;;;;;;0.98;0.80;;;;;;;;;;4490582;28;20552;-66
2022/09/02 11:02:39;;;;;;;0.93;0.90;;;;;;;;;;4487631;28;20038;-66
2022/09/02 11:04:53;;;;;;;1.00;0.90;;;;;;;;;;4486435;28;20038;-66
2022/09/02 11:07:05;;;;;;;2.53;0.88;;;;;;;;;;4490181;28;20122;-66
2022/09/02 11:09:36;;;;;;;1.20;1.00;;;;;;;;;;4485545;28;20633;-66
2022/09/02 11:11:52;;;;;;;0.70;0.70;;;;;;;;;;4488862;28;20141;-66
2022/09/02 11:14:25;;;;;;;1.20;1.10;;;;;;;;;;4488885;28;21061;-65
2022/09/02 11:16:50;;;;;;;1.33;0.90;;;;;;;;;;4490466;28;20312;-66
2022/09/02 11:19:20;;;;;;;1.50;1.00;;;;;;;;;;4489931;28;20084;-65
2022/09/02 11:22:02;;;;;;;2.17;1.00;;;;;;;;;;4476302;28;20043;-66
2022/09/02 11:24:18;;;;;;;2.22;1.10;;;;;;;;;;4487381;28;20039;-66
2022/09/02 11:26:52;;;;;;;0.80;0.80;;;;;;;;;;4472574;28;20034;-66
2022/09/02 11:29:12;;;;;;;1.42;1.00;;;;;;;;;;4476756;28;21138;-66
2022/09/02 11:31:37;;;;;;;1.17;0.90;;;;;;;;;;4489611;28;20118;-65
2022/09/02 11:33:53;;;;;;;1.10;0.90;;;;;;;;;;4485257;28;20061;-66
2022/09/02 11:36:03;;;;;;;0.85;0.80;;;;;;;;;;4487709;28;20049;-65
2022/09/02 11:38:14;;;;;;;1.25;0.77;;;;;;;;;;4489439;28;20613;-66
2022/09/02 11:40:58;;;;;;;1.27;1.02;;;;;;;;;;4486860;28;20089;-66
2022/09/02 11:43:26;;;;;;;1.13;1.02;;;;;;;;;;4486526;28;20100;-65
2022/09/02 11:45:46;;;;;;;1.13;1.05;;;;;;;;;;4487648;28;20786;-65
2022/09/02 11:48:19;;;;;;;1.15;1.00;;;;;;;;;;4488075;28;20658;-66
2022/09/02 11:50:54;;;;;;;0.73;0.70;;;;;;;;;;4485210;28;20030;-66
2022/09/02 11:53:24;;;;;;;1.45;1.13;;;;;;;;;;4491720;28;20038;-65
2022/09/02 11:55:39;;;;;;;1.08;0.93;;;;;;;;;;4491954;28;20038;-65
2022/09/02 11:57:58;;;;;;;1.13;0.90;;;;;;;;;;4487072;28;20038;-66
2022/09/02 12:00:25;;;;;;;1.10;0.90;;;;;;;;;;4472480;28;20039;-66
2022/09/02 12:02:43;;;;;;;1.15;0.90;;;;;;;;;;4487111;28;20034;-66
2022/09/02 12:05:28;;;;;;;1.55;0.90;;;;;;;;;;4486096;28;20875;-65
2022/09/02 12:07:48;;;;;;;1.50;1.00;;;;;;;;;;4486675;28;20038;-66
2022/09/02 12:10:01;;;;;;;1.00;1.00;;;;;;;;;;4486060;28;20073;-65
2022/09/02 12:12:38;;;;;;;1.20;1.00;;;;;;;;;;4468372;28;20043;-66
2022/09/02 12:14:48;;;;;;;0.93;0.88;;;;;;;;;;4468105;28;20071;-66
2022/09/02 12:17:08;;;;;;;0.90;0.90;;;;;;;;;;4486257;28;20130;-65
2022/09/02 12:19:26;;;;;;;2.17;1.10;;;;;;;;;;4486018;28;20067;-65
2022/09/02 12:22:15;;;;;;;1.52;1.00;;;;;;;;;;4486370;28;20029;-65
2022/09/02 12:24:25;;;;;;;1.02;0.95;;;;;;;;;;4485187;28;20046;-65
2022/09/02 12:26:36;;;;;;;1.10;1.00;;;;;;;;;;4485763;28;20373;-66
2022/09/02 12:28:48;;;;;;;0.98;0.90;;;;;;;;;;4484481;28;20192;-66
2022/09/02 12:31:01;;;;;;;1.08;0.90;;;;;;;;;;4485422;28;21278;-66
2022/09/02 12:33:13;;;;;;;1.23;0.90;;;;;;;;;;4486757;28;20033;-66
2022/09/02 12:35:38;;;;;;;0.90;0.90;;;;;;;;;;4484852;28;20642;-66
2022/09/02 12:37:54;;;;;;;1.05;0.95;;;;;;;;;;4497995;28;20137;-66
2022/09/02 12:40:09;;;;;;;1.00;0.80;;;;;;;;;;4469439;28;20777;-65
2022/09/02 12:42:32;;;;;;;0.90;0.90;;;;;;;;;;4486640;28;20109;-66
2022/09/02 12:45:24;;;;;;;1.00;0.90;;;;;;;;;;4477226;28;20121;-66
2022/09/02 12:48:10;;;;;;;1.00;0.90;;;;;;;;;;4436071;28;20040;-66
2022/09/02 12:50:31;;;;;;;0.90;0.90;;;;;;;;;;4484341;28;20172;-66
2022/09/02 12:52:46;;;;;;;1.08;0.98;;;;;;;;;;4485261;28;20522;-67
2022/09/02 12:55:02;;;;;;;0.73;0.73;;;;;;;;;;4484037;28;20041;-67
2022/09/02 12:57:15;;;;;;;0.80;0.80;;;;;;;;;;4486929;28;20070;-66
2022/09/02 12:59:29;;;;;;;1.08;0.98;;;;;;;;;;4491079;28;20110;-67
2022/09/02 13:01:48;;;;;;;0.90;0.90;;;;;;;;;;4484549;28;20026;-66
2022/09/02 13:04:04;;;;;;;1.05;0.80;;;;;;;;;;4489424;28;20654;-65
2022/09/02 13:06:35;;;;;;;1.00;0.80;;;;;;;;;;4483835;28;20129;-66
2022/09/02 13:09:24;;;;;;;1.10;1.00;;;;;;;;;;4486429;28;20138;-65
2022/09/02 13:11:42;;;;;;;1.00;0.82;;;;;;;;;;4486488;28;20654;-65
2022/09/02 13:14:19;;;;;;;1.27;1.00;;;;;;;;;;4486409;28;20029;-66
2022/09/02 13:16:51;;;;;;;1.92;0.80;;;;;;;;;;4485317;28;20038;-65
2022/09/02 13:19:41;;;;;;;1.48;1.10;;;;;;;;;;4485626;28;20030;-65
2022/09/02 13:21:58;;;;;;;1.05;0.82;;;;;;;;;;4484348;28;20122;-66
2022/09/02 13:24:30;;;;;;;1.08;0.98;;;;;;;;;;4483772;28;20120;-65
2022/09/02 13:26:46;;;;;;;1.45;0.98;;;;;;;;;;4484173;28;20049;-65
2022/09/02 13:29:18;;;;;;;0.93;0.90;;;;;;;;;;4485840;28;20038;-65
2022/09/02 13:31:29;;;;;;;0.82;0.82;;;;;;;;;;4485119;28;20587;-66
2022/09/02 13:33:40;;;;;;;1.10;0.90;;;;;;;;;;4486977;28;20730;-65
2022/09/02 13:35:57;;;;;;;1.10;0.93;;;;;;;;;;4484177;28;20030;-66
2022/09/02 13:38:11;;;;;;;1.10;0.90;;;;;;;;;;4490918;28;20847;-66
2022/09/02 13:40:34;;;;;;;1.05;0.95;;;;;;;;;;4482459;28;21653;-65